createdAt,value
2017-10-18T00:00:30.209Z,100486.93
2017-10-18T00:01:35.981Z,100487.02
2017-10-18T00:02:41.765Z,100491.75
2017-10-18T00:03:48.109Z,100493.08
2017-10-18T00:04:55.385Z,100481.05
2017-10-18T00:06:01.135Z,100484.16
2017-10-18T00:07:06.709Z,100490.34
2017-10-18T00:08:12.496Z,100486.77
2017-10-18T00:09:18.267Z,100482.59
2017-10-18T00:10:24.801Z,100479.92
2017-10-18T00:11:30.566Z,100483.15
2017-10-18T00:12:37.105Z,100479.53
2017-10-18T00:13:42.897Z,100485.62
2017-10-18T00:14:48.479Z,100483.18
2017-10-18T00:15:53.931Z,100483.03
2017-10-18T00:16:59.701Z,100481.70
2017-10-18T00:18:05.481Z,100481.06
2017-10-18T00:19:11.318Z,100481.25
2017-10-18T00:20:16.893Z,100479.74
2017-10-18T00:21:22.652Z,100483.36
2017-10-18T00:22:29.184Z,100475.80
2017-10-18T00:23:34.747Z,100485.23
2017-10-18T00:24:40.519Z,100487.41
2017-10-18T00:25:46.281Z,100482.27
2017-10-18T00:26:52.045Z,100484.45
2017-10-18T00:27:59.145Z,100486.53
2017-10-18T00:29:05.675Z,100484.53
2017-10-18T00:30:11.471Z,100488.88
2017-10-18T00:31:17.251Z,100488.03
2017-10-18T00:32:23.017Z,100482.72
2017-10-18T00:33:28.593Z,100484.11
2017-10-18T00:34:34.361Z,100488.18
2017-10-18T00:35:40.226Z,100486.16
2017-10-18T00:36:45.988Z,100483.12
2017-10-18T00:37:51.761Z,100484.59
2017-10-18T00:38:57.525Z,100483.52
2017-10-18T00:40:03.334Z,100486.25
2017-10-18T00:41:09.893Z,100485.62
2017-10-18T00:42:16.421Z,100488.60
2017-10-18T00:43:22.192Z,100484.63
2017-10-18T00:44:28.708Z,100486.28
2017-10-18T00:45:34.481Z,100484.95
2017-10-18T00:46:41.068Z,100484.63
2017-10-18T00:47:46.637Z,100487.00
2017-10-18T00:48:52.404Z,100485.71
2017-10-18T00:49:58.182Z,100487.41
2017-10-18T00:51:04.546Z,100490.30
2017-10-18T00:52:10.334Z,100481.95
2017-10-18T00:53:16.091Z,100489.54
2017-10-18T00:54:22.624Z,100490.05
2017-10-18T00:55:28.431Z,100487.31
2017-10-18T00:56:34.181Z,100487.82
2017-10-18T00:57:40.715Z,100476.42
2017-10-18T00:58:47.292Z,100485.98
2017-10-18T00:59:52.865Z,100485.26
2017-10-18T01:00:58.627Z,100485.20
2017-10-18T01:02:05.165Z,100480.77
2017-10-18T01:03:10.969Z,100478.33
2017-10-18T01:04:16.747Z,100473.41
2017-10-18T01:05:22.518Z,100478.12
2017-10-18T01:06:28.276Z,100467.48
2017-10-18T01:07:34.800Z,100465.01
2017-10-18T01:08:40.601Z,100467.84
2017-10-18T01:09:46.347Z,100465.09
2017-10-18T01:10:52.123Z,100467.78
2017-10-18T01:11:57.888Z,100468.95
2017-10-18T01:13:03.777Z,100465.88
2017-10-18T01:14:09.555Z,100463.74
2017-10-18T01:15:15.310Z,100468.05
2017-10-18T01:16:21.068Z,100464.70
2017-10-18T01:17:27.412Z,100460.40
2017-10-18T01:18:33.176Z,100457.05
2017-10-18T01:19:38.983Z,100464.41
2017-10-18T01:20:44.756Z,100459.28
2017-10-18T01:21:50.676Z,100459.28
2017-10-18T01:22:57.209Z,100455.09
2017-10-18T01:24:02.971Z,100457.29
2017-10-18T01:25:08.794Z,100452.38
2017-10-18T01:26:14.214Z,100452.86
2017-10-18T01:27:20.532Z,100456.32
2017-10-18T01:28:27.058Z,100446.50
2017-10-18T01:29:32.812Z,100448.36
2017-10-18T01:30:38.604Z,100449.23
2017-10-18T01:31:44.365Z,100450.23
2017-10-18T01:32:50.143Z,100442.55
2017-10-18T01:33:55.891Z,100445.05
2017-10-18T01:35:02.425Z,100446.65
2017-10-18T01:36:08.233Z,100448.78
2017-10-18T01:37:13.986Z,100440.35
2017-10-18T01:38:19.748Z,100441.73
2017-10-18T01:39:25.516Z,100436.95
2017-10-18T01:40:31.274Z,100433.94
2017-10-18T01:41:37.820Z,100438.09
2017-10-18T01:42:43.593Z,100441.22
2017-10-18T01:43:49.348Z,100449.36
2017-10-18T01:44:55.130Z,100450.39
2017-10-18T01:46:00.892Z,100457.38
2017-10-18T01:47:07.447Z,100451.95
2017-10-18T01:48:13.992Z,100449.52
2017-10-18T01:49:19.765Z,100443.14
2017-10-18T01:50:26.288Z,100447.66
2017-10-18T01:51:32.386Z,100444.52
2017-10-18T01:52:38.173Z,100444.28
2017-10-18T01:53:43.943Z,100442.48
2017-10-18T01:54:50.464Z,100434.02
2017-10-18T01:55:56.228Z,100428.38
2017-10-18T01:57:01.997Z,100420.02
2017-10-18T01:58:08.549Z,100421.64
2017-10-18T01:59:15.085Z,100420.70
2017-10-18T02:00:21.612Z,100425.48
2017-10-18T02:01:27.373Z,100430.91
2017-10-18T02:02:33.141Z,100427.13
2017-10-18T02:03:38.926Z,100423.72
2017-10-18T02:04:44.679Z,100430.82
2017-10-18T02:05:50.450Z,100429.11
2017-10-18T02:06:56.205Z,100432.38
2017-10-18T02:08:01.984Z,100432.33
2017-10-18T02:09:07.760Z,100427.84
2017-10-18T02:10:13.539Z,100429.25
2017-10-18T02:11:19.292Z,100420.87
2017-10-18T02:12:25.650Z,100420.55
2017-10-18T02:13:31.436Z,100421.08
2017-10-18T02:14:37.228Z,100425.33
2017-10-18T02:15:43.751Z,100421.84
2017-10-18T02:16:49.535Z,100422.38
2017-10-18T02:17:56.062Z,100415.95
2017-10-18T02:19:01.839Z,100420.41
2017-10-18T02:20:08.394Z,100418.10
2017-10-18T02:21:14.921Z,100422.69
2017-10-18T02:22:20.689Z,100422.95
2017-10-18T02:23:27.219Z,100419.13
2017-10-18T02:24:32.980Z,100415.38
2017-10-18T02:25:38.772Z,100414.56
2017-10-18T02:26:44.547Z,100414.44
2017-10-18T02:27:50.303Z,100409.87
2017-10-18T02:28:56.847Z,100417.02
2017-10-18T02:30:02.626Z,100416.31
2017-10-18T02:31:09.192Z,100414.17
2017-10-18T02:32:15.717Z,100419.89
2017-10-18T02:33:21.483Z,100417.64
2017-10-18T02:34:28.014Z,100413.61
2017-10-18T02:35:33.792Z,100414.52
2017-10-18T02:36:40.151Z,100410.17
2017-10-18T02:37:45.915Z,100411.92
2017-10-18T02:38:51.685Z,100406.67
2017-10-18T02:39:57.544Z,100402.56
2017-10-18T02:41:03.331Z,100409.05
2017-10-18T02:42:09.121Z,100406.40
2017-10-18T02:43:16.045Z,100406.95
2017-10-18T02:44:21.809Z,100405.49
2017-10-18T02:45:27.588Z,100404.22
2017-10-18T02:46:34.129Z,100404.94
2017-10-18T02:47:39.926Z,100397.66
2017-10-18T02:48:45.336Z,100402.77
2017-10-18T02:49:51.864Z,100394.64
2017-10-18T02:50:57.646Z,100394.31
2017-10-18T02:52:04.169Z,100392.28
2017-10-18T02:53:09.967Z,100401.97
2017-10-18T02:54:15.736Z,100389.02
2017-10-18T02:55:21.499Z,100393.94
2017-10-18T02:56:27.269Z,100392.69
2017-10-18T02:57:33.790Z,100394.16
2017-10-18T02:58:39.572Z,100394.72
2017-10-18T02:59:45.925Z,100393.12
2017-10-18T03:00:51.948Z,100385.52
2017-10-18T03:01:57.714Z,100391.45
2017-10-18T03:03:04.233Z,100395.67
2017-10-18T03:04:10.018Z,100393.78
2017-10-18T03:05:16.545Z,100391.45
2017-10-18T03:06:22.309Z,100389.98
2017-10-18T03:08:46.780Z,100378.89
2017-10-18T03:09:54.073Z,100372.80
2017-10-18T03:11:00.612Z,100383.00
2017-10-18T03:12:07.028Z,100372.43
2017-10-18T03:13:12.780Z,100379.05
2017-10-18T03:15:22.680Z,100376.87
2017-10-18T03:16:29.219Z,100373.94
2017-10-18T03:17:34.905Z,100375.78
2017-10-18T03:18:40.666Z,100381.83
2017-10-18T03:19:46.439Z,100375.06
2017-10-18T03:20:52.215Z,100374.92
2017-10-18T03:21:58.733Z,100380.07
2017-10-18T03:23:04.305Z,100370.20
2017-10-18T03:24:10.837Z,100372.56
2017-10-18T03:25:16.666Z,100376.11
2017-10-18T03:26:22.454Z,100379.18
2017-10-18T03:27:28.444Z,100374.45
2017-10-18T03:28:33.833Z,100378.40
2017-10-18T03:29:39.664Z,100376.04
2017-10-18T03:30:45.849Z,100372.45
2017-10-18T03:31:51.638Z,100373.44
2017-10-18T03:32:57.057Z,100367.02
2017-10-18T03:34:02.833Z,100365.84
2017-10-18T03:35:09.425Z,100364.75
2017-10-18T03:36:15.188Z,100365.17
2017-10-18T03:37:20.975Z,100367.25
2017-10-18T03:38:27.509Z,100361.68
2017-10-18T03:39:33.264Z,100361.12
2017-10-18T03:40:38.839Z,100363.56
2017-10-18T03:41:44.593Z,100367.30
2017-10-18T03:42:50.380Z,100363.32
2017-10-18T03:43:57.645Z,100363.99
2017-10-18T03:45:03.404Z,100361.20
2017-10-18T03:46:09.160Z,100364.64
2017-10-18T03:47:15.686Z,100367.91
2017-10-18T03:48:21.464Z,100372.16
2017-10-18T03:49:27.995Z,100372.02
2017-10-18T03:50:33.766Z,100375.42
2017-10-18T03:51:40.307Z,100378.34
2017-10-18T03:52:46.069Z,100376.04
2017-10-18T03:53:52.628Z,100374.61
2017-10-18T03:54:59.161Z,100371.08
2017-10-18T03:56:04.918Z,100361.02
2017-10-18T03:57:10.712Z,100364.23
2017-10-18T03:58:16.550Z,100363.09
2017-10-18T03:59:22.328Z,100359.35
2017-10-18T04:00:28.102Z,100360.20
2017-10-18T04:01:33.871Z,100361.05
2017-10-18T04:02:39.633Z,100358.29
2017-10-18T04:03:45.405Z,100356.77
2017-10-18T04:04:51.957Z,100362.25
2017-10-18T04:05:57.715Z,100361.30
2017-10-18T04:07:03.481Z,100364.50
2017-10-18T04:08:10.008Z,100368.05
2017-10-18T04:09:15.778Z,100363.04
2017-10-18T04:10:22.165Z,100360.59
2017-10-18T04:11:27.940Z,100364.08
2017-10-18T04:12:33.697Z,100361.72
2017-10-18T04:13:40.238Z,100362.70
2017-10-18T04:14:45.995Z,100366.19
2017-10-18T04:15:51.788Z,100359.52
2017-10-18T04:16:57.553Z,100359.72
2017-10-18T04:18:03.424Z,100362.72
2017-10-18T04:19:09.188Z,100370.09
2017-10-18T04:20:15.719Z,100365.91
2017-10-18T04:21:21.617Z,100365.42
2017-10-18T04:22:27.393Z,100368.97
2017-10-18T04:23:33.241Z,100369.02
2017-10-18T04:24:39.067Z,100365.42
2017-10-18T04:25:44.826Z,100368.80
2017-10-18T04:26:50.624Z,100367.53
2017-10-18T04:27:56.385Z,100364.56
2017-10-18T04:29:02.160Z,100364.81
2017-10-18T04:30:08.202Z,100361.27
2017-10-18T04:31:13.969Z,100358.15
2017-10-18T04:32:20.520Z,100363.63
2017-10-18T04:33:26.280Z,100360.54
2017-10-18T04:34:32.812Z,100369.84
2017-10-18T04:35:40.092Z,100367.42
2017-10-18T04:36:45.873Z,100363.59
2017-10-18T04:37:51.673Z,100363.73
2017-10-18T04:38:58.200Z,100365.23
2017-10-18T04:40:03.974Z,100364.09
2017-10-18T04:41:09.739Z,100358.08
2017-10-18T04:42:16.088Z,100354.19
2017-10-18T04:43:22.648Z,100348.22
2017-10-18T04:44:29.184Z,100354.34
2017-10-18T04:45:34.981Z,100343.16
2017-10-18T04:46:40.740Z,100350.09
2017-10-18T04:47:46.325Z,100347.23
2017-10-18T04:48:52.888Z,100344.03
2017-10-18T04:49:59.417Z,100346.06
2017-10-18T04:51:05.193Z,100343.08
2017-10-18T04:52:11.722Z,100343.56
2017-10-18T04:53:17.490Z,100347.92
2017-10-18T04:54:24.047Z,100341.75
2017-10-18T04:55:29.808Z,100351.53
2017-10-18T04:56:36.342Z,100343.69
2017-10-18T04:57:42.098Z,100349.72
2017-10-18T04:58:48.633Z,100349.52
2017-10-18T04:59:55.197Z,100346.53
2017-10-18T05:01:00.952Z,100354.82
2017-10-18T05:02:06.729Z,100346.33
2017-10-18T05:03:12.496Z,100348.44
2017-10-18T05:04:18.064Z,100348.91
2017-10-18T05:05:23.904Z,100347.88
2017-10-18T05:06:29.685Z,100339.05
2017-10-18T05:07:35.455Z,100343.86
2017-10-18T05:08:41.233Z,100341.41
2017-10-18T05:09:47.273Z,100341.06
2017-10-18T05:10:53.072Z,100341.69
2017-10-18T05:11:58.856Z,100337.73
2017-10-18T05:13:04.653Z,100340.03
2017-10-18T05:14:10.429Z,100347.59
2017-10-18T05:15:16.186Z,100341.05
2017-10-18T05:16:21.985Z,100340.66
2017-10-18T05:17:27.748Z,100335.00
2017-10-18T05:18:33.526Z,100343.34
2017-10-18T05:19:39.281Z,100340.91
2017-10-18T05:20:45.468Z,100343.50
2017-10-18T05:21:50.396Z,100342.45
2017-10-18T05:22:56.158Z,100339.52
2017-10-18T05:24:01.916Z,100335.08
2017-10-18T05:25:07.708Z,100339.52
2017-10-18T05:26:13.293Z,100337.00
2017-10-18T05:27:19.088Z,100338.13
2017-10-18T05:28:24.846Z,100336.73
2017-10-18T05:29:30.616Z,100334.32
2017-10-18T05:30:36.374Z,100338.61
2017-10-18T05:31:42.704Z,100339.73
2017-10-18T05:32:48.501Z,100334.30
2017-10-18T05:33:54.285Z,100338.08
2017-10-18T05:35:00.051Z,100340.91
2017-10-18T05:36:06.589Z,100338.48
2017-10-18T05:37:12.391Z,100339.11
2017-10-18T05:38:18.172Z,100341.61
2017-10-18T05:39:23.976Z,100334.02
2017-10-18T05:40:29.732Z,100336.80
2017-10-18T05:41:35.508Z,100333.55
2017-10-18T05:42:41.277Z,100334.30
2017-10-18T05:43:47.828Z,100331.58
2017-10-18T05:44:54.364Z,100334.73
2017-10-18T05:46:00.141Z,100339.36
2017-10-18T05:47:06.518Z,100330.77
2017-10-18T05:48:12.338Z,100341.11
2017-10-18T05:49:18.884Z,100337.05
2017-10-18T05:50:24.645Z,100331.58
2017-10-18T05:51:31.008Z,100331.30
2017-10-18T05:52:36.798Z,100328.09
2017-10-18T05:53:42.564Z,100333.94
2017-10-18T05:54:48.391Z,100328.18
2017-10-18T05:55:53.954Z,100324.97
2017-10-18T05:56:59.725Z,100325.51
2017-10-18T05:58:06.336Z,100324.19
2017-10-18T05:59:12.098Z,100332.77
2017-10-18T06:00:17.876Z,100334.78
2017-10-18T06:01:23.650Z,100325.59
2017-10-18T06:02:29.416Z,100326.16
2017-10-18T06:03:35.180Z,100320.45
2017-10-18T06:04:41.700Z,100335.63
2017-10-18T06:05:47.298Z,100333.41
2017-10-18T06:06:52.876Z,100342.00
2017-10-18T06:07:58.647Z,100339.92
2017-10-18T06:09:04.042Z,100331.92
2017-10-18T06:10:09.487Z,100325.56
2017-10-18T06:11:15.263Z,100330.77
2017-10-18T06:12:21.044Z,100334.39
2017-10-18T06:13:26.971Z,100327.14
2017-10-18T06:14:32.725Z,100330.62
2017-10-18T06:15:38.220Z,100328.61
2017-10-18T06:16:44.799Z,100328.98
2017-10-18T06:17:50.395Z,100329.16
2017-10-18T06:18:55.974Z,100333.13
2017-10-18T06:20:02.230Z,100335.63
2017-10-18T06:21:09.241Z,100327.22
2017-10-18T06:22:15.045Z,100328.73
2017-10-18T06:23:20.290Z,100330.34
2017-10-18T06:24:25.861Z,100333.19
2017-10-18T06:25:32.517Z,100330.20
2017-10-18T06:26:38.351Z,100331.86
2017-10-18T06:27:44.468Z,100331.30
2017-10-18T06:28:50.366Z,100331.91
2017-10-18T06:29:56.991Z,100329.19
2017-10-18T06:31:02.819Z,100334.84
2017-10-18T06:32:08.456Z,100333.52
2017-10-18T06:33:14.267Z,100330.73
2017-10-18T06:34:20.860Z,100326.17
2017-10-18T06:35:26.846Z,100332.35
2017-10-18T06:36:33.191Z,100334.94
2017-10-18T06:37:38.949Z,100332.91
2017-10-18T06:38:44.741Z,100328.43
2017-10-18T06:39:50.579Z,100332.55
2017-10-18T06:40:56.358Z,100330.52
2017-10-18T06:42:02.151Z,100327.88
2017-10-18T06:43:08.723Z,100328.39
2017-10-18T06:44:14.511Z,100329.42
2017-10-18T06:45:20.318Z,100329.66
2017-10-18T06:46:26.110Z,100327.44
2017-10-18T06:47:31.880Z,100332.06
2017-10-18T06:48:38.446Z,100328.16
2017-10-18T06:49:45.025Z,100328.72
2017-10-18T06:50:50.776Z,100327.95
2017-10-18T06:51:56.536Z,100331.50
2017-10-18T06:53:02.295Z,100334.99
2017-10-18T06:54:08.060Z,100337.73
2017-10-18T06:55:14.616Z,100330.73
2017-10-18T06:56:20.368Z,100336.72
2017-10-18T06:57:26.896Z,100333.14
2017-10-18T06:58:32.661Z,100332.07
2017-10-18T06:59:39.188Z,100332.59
2017-10-18T07:00:44.978Z,100331.13
2017-10-18T07:01:51.504Z,100330.84
2017-10-18T07:02:57.280Z,100330.98
2017-10-18T07:04:03.812Z,100336.34
2017-10-18T07:05:09.572Z,100340.06
2017-10-18T07:06:16.144Z,100336.94
2017-10-18T07:07:22.675Z,100336.48
2017-10-18T07:08:28.437Z,100334.30
2017-10-18T07:09:34.985Z,100338.98
2017-10-18T07:10:40.741Z,100337.91
2017-10-18T07:11:47.299Z,100336.52
2017-10-18T07:12:53.848Z,100335.17
2017-10-18T07:13:59.640Z,100339.42
2017-10-18T07:15:05.402Z,100337.85
2017-10-18T07:16:11.178Z,100336.58
2017-10-18T07:17:17.734Z,100336.92
2017-10-18T07:18:24.271Z,100338.97
2017-10-18T07:19:30.036Z,100334.47
2017-10-18T07:20:36.577Z,100336.97
2017-10-18T07:21:42.334Z,100336.28
2017-10-18T07:22:48.131Z,100339.34
2017-10-18T07:23:53.892Z,100334.52
2017-10-18T07:24:59.671Z,100337.88
2017-10-18T07:26:06.196Z,100335.04
2017-10-18T07:27:11.963Z,100338.02
2017-10-18T07:28:17.770Z,100338.19
2017-10-18T07:29:23.537Z,100330.09
2017-10-18T07:30:29.311Z,100329.59
2017-10-18T07:31:35.987Z,100329.21
2017-10-18T07:32:41.931Z,100333.22
2017-10-18T07:33:47.745Z,100333.83
2017-10-18T07:34:53.503Z,100335.13
2017-10-18T07:36:00.077Z,100335.59
2017-10-18T07:37:06.075Z,100342.73
2017-10-18T07:38:12.040Z,100340.63
2017-10-18T07:39:18.469Z,100339.77
2017-10-18T07:40:24.779Z,100342.03
2017-10-18T07:41:30.912Z,100336.50
2017-10-18T07:42:38.516Z,100334.19
2017-10-18T07:43:44.567Z,100333.45
2017-10-18T07:44:53.077Z,100336.55
2017-10-18T07:45:59.104Z,100340.58
2017-10-18T07:47:06.147Z,100333.12
2017-10-18T07:48:13.012Z,100343.72
2017-10-18T07:49:19.895Z,100336.09
2017-10-18T07:50:26.170Z,100337.69
2017-10-18T07:51:32.338Z,100333.28
2017-10-18T07:52:38.593Z,100335.32
2017-10-18T07:53:44.702Z,100333.27
2017-10-18T07:54:51.603Z,100333.93
2017-10-18T07:55:58.809Z,100322.61
2017-10-18T07:57:04.692Z,100327.80
2017-10-18T07:58:10.443Z,100326.28
2017-10-18T07:59:17.057Z,100332.54
2017-10-18T08:00:22.871Z,100326.64
2017-10-18T08:01:28.770Z,100333.59
2017-10-18T08:02:36.139Z,100329.91
2017-10-18T08:03:41.969Z,100331.77
2017-10-18T08:04:47.997Z,100331.11
2017-10-18T08:05:53.900Z,100329.48
2017-10-18T08:07:00.453Z,100328.19
2017-10-18T08:08:06.712Z,100328.59
2017-10-18T08:09:12.958Z,100327.71
2017-10-18T08:10:18.722Z,100330.25
2017-10-18T08:11:25.253Z,100325.22
2017-10-18T08:12:30.798Z,100326.92
2017-10-18T08:13:37.328Z,100326.70
2017-10-18T08:14:43.096Z,100328.28
2017-10-18T08:15:48.917Z,100329.60
2017-10-18T08:16:54.687Z,100326.86
2017-10-18T08:18:01.265Z,100322.70
2017-10-18T08:19:06.912Z,100326.66
2017-10-18T08:20:12.713Z,100320.17
2017-10-18T08:21:18.476Z,100326.41
2017-10-18T08:22:24.820Z,100327.77
2017-10-18T08:23:30.621Z,100327.85
2017-10-18T08:24:36.388Z,100324.41
2017-10-18T08:25:41.482Z,100323.92
2017-10-18T08:26:47.240Z,100322.77
2017-10-18T08:27:53.012Z,100315.05
2017-10-18T08:28:58.893Z,100327.72
2017-10-18T08:30:04.816Z,100322.59
2017-10-18T08:31:11.456Z,100319.27
2017-10-18T08:32:17.809Z,100320.17
2017-10-18T08:33:24.489Z,100319.07
2017-10-18T08:34:31.216Z,100320.72
2017-10-18T08:35:37.070Z,100317.12
2017-10-18T08:36:43.110Z,100320.26
2017-10-18T08:37:49.836Z,100318.30
2017-10-18T08:38:55.773Z,100323.81
2017-10-18T08:40:01.835Z,100317.65
2017-10-18T08:41:07.372Z,100320.20
2017-10-18T08:42:13.315Z,100324.91
2017-10-18T08:43:19.369Z,100322.41
2017-10-18T08:44:25.387Z,100315.09
2017-10-18T08:45:30.987Z,100312.34
2017-10-18T08:46:37.483Z,100315.27
2017-10-18T08:47:43.663Z,100311.13
2017-10-18T08:48:49.434Z,100308.09
2017-10-18T08:49:55.188Z,100310.25
2017-10-18T08:51:00.637Z,100306.62
2017-10-18T08:52:07.167Z,100311.62
2017-10-18T08:53:12.921Z,100303.73
2017-10-18T08:54:18.697Z,100307.34
2017-10-18T08:55:25.361Z,100306.97
2017-10-18T08:56:31.924Z,100306.25
2017-10-18T08:57:38.472Z,100300.00
2017-10-18T08:58:45.053Z,100306.25
2017-10-18T08:59:50.473Z,100300.67
2017-10-18T09:00:56.468Z,100300.28
2017-10-18T09:02:01.915Z,100295.05
2017-10-18T09:03:07.114Z,100294.87
2017-10-18T09:04:12.889Z,100293.36
2017-10-18T09:05:18.457Z,100291.34
2017-10-18T09:06:25.046Z,100299.33
2017-10-18T09:07:30.875Z,100297.94
2017-10-18T09:08:37.389Z,100290.47
2017-10-18T09:09:42.962Z,100294.42
2017-10-18T09:10:49.313Z,100293.35
2017-10-18T09:11:55.851Z,100299.68
2017-10-18T09:13:01.645Z,100292.75
2017-10-18T09:14:07.243Z,100292.74
2017-10-18T09:15:12.991Z,100290.89
2017-10-18T09:16:19.535Z,100291.25
2017-10-18T09:17:25.291Z,100295.53
2017-10-18T09:18:31.076Z,100290.64
2017-10-18T09:19:36.838Z,100281.63
2017-10-18T09:20:42.614Z,100284.50
2017-10-18T09:21:48.368Z,100281.14
2017-10-18T09:22:54.902Z,100285.17
2017-10-18T09:24:01.091Z,100285.66
2017-10-18T09:25:07.613Z,100280.80
2017-10-18T09:26:14.144Z,100284.25
2017-10-18T09:27:19.913Z,100279.00
2017-10-18T09:28:25.678Z,100291.33
2017-10-18T09:29:32.228Z,100282.50
2017-10-18T09:30:37.985Z,100285.41
2017-10-18T09:31:44.528Z,100283.80
2017-10-18T09:32:50.287Z,100286.50
2017-10-18T09:33:56.074Z,100275.05
2017-10-18T09:35:01.856Z,100275.61
2017-10-18T09:36:07.624Z,100276.23
2017-10-18T09:37:13.396Z,100277.89
2017-10-18T09:38:19.219Z,100272.31
2017-10-18T09:39:24.726Z,100274.69
2017-10-18T09:40:31.445Z,100275.45
2017-10-18T09:41:37.149Z,100274.23
2017-10-18T09:42:43.069Z,100275.10
2017-10-18T09:43:49.846Z,100273.10
2017-10-18T09:44:55.790Z,100271.88
2017-10-18T09:46:02.421Z,100279.33
2017-10-18T09:47:08.123Z,100272.49
2017-10-18T09:48:13.931Z,100268.50
2017-10-18T09:49:19.877Z,100267.63
2017-10-18T09:50:26.547Z,100268.22
2017-10-18T09:51:32.769Z,100268.31
2017-10-18T09:52:39.380Z,100266.25
2017-10-18T09:53:45.236Z,100262.67
2017-10-18T09:54:51.041Z,100265.04
2017-10-18T09:55:57.600Z,100259.98
2017-10-18T09:57:04.049Z,100263.70
2017-10-18T09:58:09.891Z,100262.54
2017-10-18T09:59:16.232Z,100259.34
2017-10-18T10:00:22.801Z,100262.66
2017-10-18T10:01:28.691Z,100258.23
2017-10-18T10:02:34.616Z,100256.16
2017-10-18T10:03:41.168Z,100259.98
2017-10-18T10:04:47.711Z,100268.74
2017-10-18T10:05:54.268Z,100253.98
2017-10-18T10:07:00.260Z,100256.77
2017-10-18T10:08:06.213Z,100260.06
2017-10-18T10:09:12.001Z,100258.53
2017-10-18T10:10:17.773Z,100266.66
2017-10-18T10:11:25.865Z,100262.09
2017-10-18T10:12:32.448Z,100260.61
2017-10-18T10:13:38.394Z,100261.73
2017-10-18T10:14:44.435Z,100266.01
2017-10-18T10:15:50.961Z,100255.88
2017-10-18T10:16:56.776Z,100255.67
2017-10-18T10:18:02.559Z,100257.76
2017-10-18T10:19:08.966Z,100256.81
2017-10-18T10:20:14.788Z,100251.53
2017-10-18T10:21:20.736Z,100252.98
2017-10-18T10:22:26.632Z,100254.56
2017-10-18T10:23:33.278Z,100257.33
2017-10-18T10:24:39.132Z,100251.47
2017-10-18T10:25:45.030Z,100257.54
2017-10-18T10:26:51.044Z,100255.89
2017-10-18T10:27:57.024Z,100251.29
2017-10-18T10:29:02.931Z,100256.23
2017-10-18T10:30:09.874Z,100251.67
2017-10-18T10:31:15.767Z,100254.00
2017-10-18T10:32:22.343Z,100250.19
2017-10-18T10:33:28.278Z,100252.98
2017-10-18T10:34:34.179Z,100255.06
2017-10-18T10:35:40.065Z,100246.60
2017-10-18T10:36:46.946Z,100246.15
2017-10-18T10:37:52.976Z,100243.59
2017-10-18T10:38:59.577Z,100243.02
2017-10-18T10:40:05.347Z,100245.00
2017-10-18T10:41:11.137Z,100246.50
2017-10-18T10:42:16.936Z,100245.53
2017-10-18T10:43:22.773Z,100249.42
2017-10-18T10:44:28.535Z,100241.64
2017-10-18T10:45:35.112Z,100242.00
2017-10-18T10:46:41.998Z,100241.09
2017-10-18T10:47:48.217Z,100248.41
2017-10-18T10:48:54.763Z,100251.42
2017-10-18T10:50:00.599Z,100243.30
2017-10-18T10:51:06.356Z,100238.42
2017-10-18T10:52:12.177Z,100237.58
2017-10-18T10:53:18.074Z,100242.20
2017-10-18T10:54:23.921Z,100237.77
2017-10-18T10:55:29.688Z,100241.09
2017-10-18T10:56:35.509Z,100241.13
2017-10-18T10:57:41.316Z,100235.90
2017-10-18T10:58:47.848Z,100234.86
2017-10-18T10:59:53.632Z,100233.48
2017-10-18T11:01:00.242Z,100238.81
2017-10-18T11:02:05.992Z,100230.87
2017-10-18T11:03:11.820Z,100233.47
2017-10-18T11:04:17.606Z,100234.99
2017-10-18T11:05:23.372Z,100235.68
2017-10-18T11:06:29.921Z,100236.64
2017-10-18T11:07:36.454Z,100229.25
2017-10-18T11:08:42.320Z,100235.12
2017-10-18T11:09:48.912Z,100235.91
2017-10-18T11:10:54.739Z,100232.69
2017-10-18T11:12:00.529Z,100230.95
2017-10-18T11:13:06.288Z,100224.17
2017-10-18T11:14:12.077Z,100227.59
2017-10-18T11:15:17.866Z,100226.54
2017-10-18T11:16:23.645Z,100225.20
2017-10-18T11:17:30.192Z,100224.63
2017-10-18T11:18:36.717Z,100226.96
2017-10-18T11:19:42.530Z,100229.29
2017-10-18T11:20:48.295Z,100223.83
2017-10-18T11:21:54.078Z,100226.24
2017-10-18T11:23:00.653Z,100227.30
2017-10-18T11:24:06.104Z,100227.41
2017-10-18T11:25:11.708Z,100223.36
2017-10-18T11:26:18.250Z,100226.23
2017-10-18T11:27:24.013Z,100225.85
2017-10-18T11:28:30.565Z,100224.41
2017-10-18T11:29:37.097Z,100222.11
2017-10-18T11:30:42.885Z,100219.16
2017-10-18T11:31:49.417Z,100212.89
2017-10-18T11:32:55.286Z,100217.51
2017-10-18T11:34:01.070Z,100214.83
2017-10-18T11:35:06.894Z,100212.19
2017-10-18T11:36:12.698Z,100212.39
2017-10-18T11:37:19.227Z,100208.52
2017-10-18T11:38:24.996Z,100203.55
2017-10-18T11:39:30.790Z,100206.05
2017-10-18T11:40:36.560Z,100204.06
2017-10-18T11:41:42.349Z,100202.10
2017-10-18T11:42:48.118Z,100200.48
2017-10-18T11:43:54.225Z,100208.62
2017-10-18T11:45:00.762Z,100202.20
2017-10-18T11:46:06.537Z,100204.98
2017-10-18T11:47:13.264Z,100201.75
2017-10-18T11:48:19.148Z,100196.78
2017-10-18T11:49:25.689Z,100198.33
2017-10-18T11:50:32.257Z,100192.38
2017-10-18T11:51:38.796Z,100189.13
2017-10-18T11:52:44.587Z,100190.46
2017-10-18T11:53:50.526Z,100186.72
2017-10-18T11:54:56.409Z,100186.65
2017-10-18T11:56:02.181Z,100183.51
2017-10-18T11:57:08.072Z,100180.68
2017-10-18T11:58:13.861Z,100176.02
2017-10-18T11:59:19.440Z,100183.31
2017-10-18T12:00:25.387Z,100185.19
2017-10-18T12:01:31.196Z,100178.63
2017-10-18T12:02:37.728Z,100184.07
2017-10-18T12:03:43.522Z,100179.39
2017-10-18T12:04:49.125Z,100176.80
2017-10-18T12:05:54.906Z,100173.13
2017-10-18T12:07:00.669Z,100179.22
2017-10-18T12:08:06.500Z,100169.06
2017-10-18T12:09:12.337Z,100173.12
2017-10-18T12:10:18.204Z,100170.29
2017-10-18T12:11:24.072Z,100170.45
2017-10-18T12:12:29.848Z,100179.16
2017-10-18T12:13:36.432Z,100168.69
2017-10-18T12:14:42.276Z,100169.33
2017-10-18T12:15:48.119Z,100168.98
2017-10-18T12:16:54.836Z,100169.86
2017-10-18T12:18:01.692Z,100163.95
2017-10-18T12:19:08.270Z,100173.53
2017-10-18T12:20:14.112Z,100169.41
2017-10-18T12:21:19.940Z,100169.19
2017-10-18T12:22:25.824Z,100173.77
2017-10-18T12:23:32.432Z,100169.64
2017-10-18T12:24:38.216Z,100167.73
2017-10-18T12:25:44.772Z,100165.81
2017-10-18T12:26:51.314Z,100163.77
2017-10-18T12:27:57.093Z,100166.51
2017-10-18T12:29:02.862Z,100162.80
2017-10-18T12:30:08.658Z,100159.45
2017-10-18T12:31:15.258Z,100159.78
2017-10-18T12:32:21.107Z,100150.54
2017-10-18T12:33:26.899Z,100155.15
2017-10-18T12:34:33.469Z,100158.14
2017-10-18T12:35:40.041Z,100158.71